createdAt,value
2023-03-10T10:19:49.229Z,13.20
2023-03-10T10:22:24.472Z,13.20
2023-03-10T10:25:15.785Z,13.00
2023-03-10T10:27:47.850Z,13.20
2023-03-10T10:30:36.526Z,13.60
2023-03-10T10:33:07.229Z,13.30
2023-03-10T10:35:38.205Z,13.60
2023-03-10T10:38:18.714Z,13.70
2023-03-10T10:40:52.867Z,13.50
2023-03-10T10:43:23.620Z,13.20
2023-03-10T10:45:55.550Z,13.70
2023-03-10T10:48:38.663Z,13.80
2023-03-10T10:51:21.286Z,13.80
2023-03-10T10:53:50.453Z,14.00
2023-03-10T10:56:21.164Z,14.30
2023-03-10T10:59:06.420Z,13.90
2023-03-10T11:02:00.154Z,13.20
2023-03-10T11:04:31.132Z,13.20
2023-03-10T11:07:13.610Z,13.10
2023-03-10T11:09:41.900Z,13.10
2023-03-10T11:12:20.643Z,12.90
2023-03-10T11:15:07.537Z,12.90
2023-03-10T11:17:44.032Z,13.00
2023-03-10T11:20:25.839Z,12.80
2023-03-10T11:23:03.854Z,12.50
2023-03-10T11:25:39.673Z,12.60
2023-03-10T11:28:38.149Z,12.20
2023-03-10T11:31:26.454Z,12.00
2023-03-10T11:34:05.353Z,12.10
2023-03-10T11:36:55.467Z,12.20
2023-03-10T11:39:40.089Z,12.10
2023-03-10T11:42:20.042Z,12.20
2023-03-10T11:45:04.774Z,12.20
2023-03-10T11:47:55.871Z,11.90
2023-03-10T11:50:37.409Z,12.00
2023-03-10T11:53:13.423Z,11.80
2023-03-10T11:55:44.740Z,11.50
2023-03-10T11:58:25.570Z,11.60
2023-03-10T12:00:55.344Z,11.30
2023-03-10T12:03:43.397Z,11.40
2023-03-10T12:06:18.837Z,11.00
2023-03-10T12:08:50.824Z,11.00
2023-03-10T12:11:25.289Z,11.00
2023-03-10T12:13:59.725Z,11.10
2023-03-10T12:16:31.732Z,11.20
2023-03-10T12:19:01.645Z,11.30
2023-03-10T12:21:31.891Z,11.50
2023-03-10T12:24:02.938Z,11.80
2023-03-10T12:27:04.482Z,11.60
2023-03-10T12:29:42.936Z,11.90
2023-03-10T12:32:47.210Z,11.50
2023-03-10T12:35:50.765Z,11.50
2023-03-10T12:38:35.410Z,11.50
2023-03-10T12:41:04.785Z,11.50
2023-03-10T12:43:58.403Z,11.30
2023-03-10T12:46:45.560Z,11.40
2023-03-10T12:49:34.091Z,11.40
2023-03-10T12:52:27.960Z,10.90
2023-03-10T12:55:15.645Z,11.00
2023-03-10T12:58:01.553Z,11.10
2023-03-10T13:00:40.643Z,10.80
2023-03-10T13:03:35.488Z,10.50
2023-03-10T13:06:08.174Z,10.60
2023-03-10T13:08:45.042Z,10.50
2023-03-10T13:11:32.062Z,10.60
2023-03-10T13:14:05.208Z,10.40
2023-03-10T13:16:36.422Z,10.70
2023-03-10T13:19:06.395Z,10.60
2023-03-10T13:21:38.493Z,10.80
2023-03-10T13:24:26.363Z,10.80
2023-03-10T13:27:07.104Z,11.00
2023-03-10T13:29:36.150Z,10.80
2023-03-10T13:32:04.904Z,10.80
2023-03-10T13:34:36.546Z,10.60
2023-03-10T13:37:06.679Z,10.50
2023-03-10T13:39:36.565Z,10.70
2023-03-10T13:42:19.222Z,10.60
2023-03-10T13:44:47.631Z,10.20
2023-03-10T13:47:19.334Z,10.60
2023-03-10T13:49:51.302Z,10.30
2023-03-10T13:52:23.852Z,10.50
2023-03-10T13:54:53.800Z,10.40
2023-03-10T13:57:28.184Z,10.50
2023-03-10T13:59:59.559Z,10.90
2023-03-10T14:02:31.798Z,11.30
2023-03-10T14:05:02.649Z,11.30
2023-03-10T14:07:33.094Z,11.10
2023-03-10T14:10:20.319Z,11.60
2023-03-10T14:12:51.786Z,11.40
2023-03-10T14:15:27.005Z,11.00
2023-03-10T14:18:20.593Z,11.00
2023-03-10T14:20:49.365Z,11.60
2023-03-10T14:23:29.432Z,11.20
2023-03-10T14:25:59.452Z,10.90
2023-03-10T14:28:29.999Z,10.40
2023-03-10T14:40:56.648Z,10.00
2023-03-10T14:46:00.265Z,9.40
2023-03-10T14:48:34.986Z,9.20
2023-03-10T14:51:03.412Z,9.50
2023-03-10T14:53:33.455Z,9.60
2023-03-10T14:56:03.767Z,9.00
2023-03-10T14:58:38.044Z,8.90
2023-03-10T15:01:07.505Z,9.20
2023-03-10T15:03:35.887Z,9.00
2023-03-10T15:06:04.198Z,9.00
2023-03-10T15:08:32.512Z,9.00
2023-03-10T15:11:00.891Z,8.90
2023-03-10T15:13:29.412Z,8.90
2023-03-10T15:15:59.276Z,8.70
2023-03-10T15:18:27.682Z,9.00
2023-03-10T15:20:59.081Z,9.60
2023-03-10T15:23:28.754Z,8.80
2023-03-10T15:25:58.172Z,8.70
2023-03-10T15:28:26.862Z,8.70
2023-03-10T15:30:55.746Z,8.40
2023-03-10T15:33:25.482Z,8.70
2023-03-10T15:35:55.008Z,9.00
2023-03-10T15:38:23.446Z,9.10
2023-03-10T15:40:52.062Z,9.30
2023-03-10T15:43:20.436Z,9.00
2023-03-10T15:45:50.215Z,8.60
2023-03-10T15:48:18.818Z,8.70
2023-03-10T15:50:48.536Z,8.30
2023-03-10T15:53:17.010Z,8.70
2023-03-10T15:55:45.354Z,8.40
2023-03-10T15:58:13.951Z,8.20
2023-03-10T16:00:44.012Z,8.40
2023-03-10T16:03:12.452Z,8.40
2023-03-10T16:05:49.156Z,8.10
2023-03-10T16:08:19.134Z,7.70
2023-03-10T16:10:53.695Z,7.20
2023-03-10T16:13:23.835Z,6.70
2023-03-10T16:15:52.987Z,6.50
2023-03-10T16:18:21.432Z,6.90
2023-03-10T16:20:58.818Z,6.30
2023-03-10T16:23:27.729Z,6.70
2023-03-10T16:26:09.055Z,7.80
2023-03-10T16:28:38.614Z,7.20
